sensor_id;sensor_type;location;lat;lon;timestamp;temperature;humidity
72650;SHT31;61467;50.674;4.618;2023-12-20T00:01:07;8.01;83.28
72650;SHT31;61467;50.674;4.618;2023-12-20T00:03:34;7.87;83.32
72650;SHT31;61467;50.674;4.618;2023-12-20T00:06:01;7.74;82.97
72650;SHT31;61467;50.674;4.618;2023-12-20T00:08:30;7.74;82.94
72650;SHT31;61467;50.674;4.618;2023-12-20T00:10:56;7.74;83.48
72650;SHT31;61467;50.674;4.618;2023-12-20T00:13:25;7.59;82.55
72650;SHT31;61467;50.674;4.618;2023-12-20T00:15:51;7.46;83.00
72650;SHT31;61467;50.674;4.618;2023-12-20T00:18:18;7.33;83.72
72650;SHT31;61467;50.674;4.618;2023-12-20T00:20:45;7.27;83.64
72650;SHT31;61467;50.674;4.618;2023-12-20T00:23:12;7.30;83.73
72650;SHT31;61467;50.674;4.618;2023-12-20T00:25:40;7.12;83.63
72650;SHT31;61467;50.674;4.618;2023-12-20T00:28:07;7.18;83.98
72650;SHT31;61467;50.674;4.618;2023-12-20T00:30:36;7.36;83.27
72650;SHT31;61467;50.674;4.618;2023-12-20T00:33:06;7.27;83.47
72650;SHT31;61467;50.674;4.618;2023-12-20T00:35:33;7.13;83.83
72650;SHT31;61467;50.674;4.618;2023-12-20T00:38:00;7.15;83.86
72650;SHT31;61467;50.674;4.618;2023-12-20T00:40:27;7.20;83.75
72650;SHT31;61467;50.674;4.618;2023-12-20T00:42:54;7.29;82.95
72650;SHT31;61467;50.674;4.618;2023-12-20T00:45:21;7.32;82.62
72650;SHT31;61467;50.674;4.618;2023-12-20T00:47:49;7.18;83.25
72650;SHT31;61467;50.674;4.618;2023-12-20T00:50:16;7.13;83.33
72650;SHT31;61467;50.674;4.618;2023-12-20T00:52:42;7.20;83.16
72650;SHT31;61467;50.674;4.618;2023-12-20T00:55:09;7.20;83.07
72650;SHT31;61467;50.674;4.618;2023-12-20T00:57:36;6.87;83.72
72650;SHT31;61467;50.674;4.618;2023-12-20T01:00:04;6.89;84.17
72650;SHT31;61467;50.674;4.618;2023-12-20T01:02:31;6.95;84.09
72650;SHT31;61467;50.674;4.618;2023-12-20T01:04:59;6.88;84.01
72650;SHT31;61467;50.674;4.618;2023-12-20T01:07:26;6.85;83.85
72650;SHT31;61467;50.674;4.618;2023-12-20T01:09:53;6.96;83.27
72650;SHT31;61467;50.674;4.618;2023-12-20T01:12:19;7.18;83.24
72650;SHT31;61467;50.674;4.618;2023-12-20T01:14:46;6.91;83.89
72650;SHT31;61467;50.674;4.618;2023-12-20T01:17:13;6.78;84.35
72650;SHT31;61467;50.674;4.618;2023-12-20T01:19:41;6.75;84.15
72650;SHT31;61467;50.674;4.618;2023-12-20T01:22:09;6.91;83.76
72650;SHT31;61467;50.674;4.618;2023-12-20T01:24:36;6.87;83.92
72650;SHT31;61467;50.674;4.618;2023-12-20T01:27:03;6.89;84.03
72650;SHT31;61467;50.674;4.618;2023-12-20T01:29:30;6.84;84.00
72650;SHT31;61467;50.674;4.618;2023-12-20T01:31:57;6.80;84.02
72650;SHT31;61467;50.674;4.618;2023-12-20T01:34:24;6.91;82.94
72650;SHT31;61467;50.674;4.618;2023-12-20T01:36:50;6.92;83.70
72650;SHT31;61467;50.674;4.618;2023-12-20T01:39:19;6.98;82.99
72650;SHT31;61467;50.674;4.618;2023-12-20T01:41:45;6.84;83.33
72650;SHT31;61467;50.674;4.618;2023-12-20T01:44:12;6.75;83.18
72650;SHT31;61467;50.674;4.618;2023-12-20T01:46:39;6.80;83.40
72650;SHT31;61467;50.674;4.618;2023-12-20T01:49:06;6.64;83.88
72650;SHT31;61467;50.674;4.618;2023-12-20T01:51:33;6.65;84.32
72650;SHT31;61467;50.674;4.618;2023-12-20T01:54:04;6.71;83.78
72650;SHT31;61467;50.674;4.618;2023-12-20T01:56:33;6.94;83.56
72650;SHT31;61467;50.674;4.618;2023-12-20T01:59:01;6.72;84.09
72650;SHT31;61467;50.674;4.618;2023-12-20T02:01:28;6.74;84.29
72650;SHT31;61467;50.674;4.618;2023-12-20T02:03:55;6.67;84.19
72650;SHT31;61467;50.674;4.618;2023-12-20T02:06:25;6.71;84.19
72650;SHT31;61467;50.674;4.618;2023-12-20T02:08:56;6.63;83.87
72650;SHT31;61467;50.674;4.618;2023-12-20T02:11:25;6.57;84.18
72650;SHT31;61467;50.674;4.618;2023-12-20T02:13:53;6.74;84.08
72650;SHT31;61467;50.674;4.618;2023-12-20T02:16:21;6.33;84.98
72650;SHT31;61467;50.674;4.618;2023-12-20T02:18:48;6.36;85.10
72650;SHT31;61467;50.674;4.618;2023-12-20T02:21:14;6.23;84.98
72650;SHT31;61467;50.674;4.618;2023-12-20T02:23:43;6.44;84.73
72650;SHT31;61467;50.674;4.618;2023-12-20T02:26:10;6.61;84.24
72650;SHT31;61467;50.674;4.618;2023-12-20T02:28:39;6.65;83.96
72650;SHT31;61467;50.674;4.618;2023-12-20T02:31:06;6.54;84.14
72650;SHT31;61467;50.674;4.618;2023-12-20T02:33:33;6.77;83.69
72650;SHT31;61467;50.674;4.618;2023-12-20T02:35:59;6.80;83.43
72650;SHT31;61467;50.674;4.618;2023-12-20T02:38:26;6.81;83.09
72650;SHT31;61467;50.674;4.618;2023-12-20T02:40:55;6.82;82.99
72650;SHT31;61467;50.674;4.618;2023-12-20T02:43:22;6.75;83.17
72650;SHT31;61467;50.674;4.618;2023-12-20T02:45:48;6.65;83.39
72650;SHT31;61467;50.674;4.618;2023-12-20T02:48:15;6.89;83.07
72650;SHT31;61467;50.674;4.618;2023-12-20T02:50:42;6.82;83.13
72650;SHT31;61467;50.674;4.618;2023-12-20T02:53:09;6.85;83.28
72650;SHT31;61467;50.674;4.618;2023-12-20T02:55:36;6.67;82.85
72650;SHT31;61467;50.674;4.618;2023-12-20T02:58:04;6.81;83.36
72650;SHT31;61467;50.674;4.618;2023-12-20T03:00:31;6.64;83.34
72650;SHT31;61467;50.674;4.618;2023-12-20T03:02:58;6.57;83.24
72650;SHT31;61467;50.674;4.618;2023-12-20T03:05:25;6.80;83.20
72650;SHT31;61467;50.674;4.618;2023-12-20T03:07:52;6.64;83.33
72650;SHT31;61467;50.674;4.618;2023-12-20T03:10:19;6.65;83.33
72650;SHT31;61467;50.674;4.618;2023-12-20T03:12:46;6.75;83.19
72650;SHT31;61467;50.674;4.618;2023-12-20T03:15:14;6.47;83.35
72650;SHT31;61467;50.674;4.618;2023-12-20T03:17:41;6.43;84.00
72650;SHT31;61467;50.674;4.618;2023-12-20T03:20:08;6.47;84.13
72650;SHT31;61467;50.674;4.618;2023-12-20T03:22:35;6.67;83.87
72650;SHT31;61467;50.674;4.618;2023-12-20T03:25:05;6.78;83.18
72650;SHT31;61467;50.674;4.618;2023-12-20T03:27:32;6.63;83.20
72650;SHT31;61467;50.674;4.618;2023-12-20T03:29:58;6.77;83.09
72650;SHT31;61467;50.674;4.618;2023-12-20T03:32:26;6.61;83.28
72650;SHT31;61467;50.674;4.618;2023-12-20T03:34:53;6.80;83.26
72650;SHT31;61467;50.674;4.618;2023-12-20T03:37:21;6.72;83.02
72650;SHT31;61467;50.674;4.618;2023-12-20T03:39:49;6.60;83.52
72650;SHT31;61467;50.674;4.618;2023-12-20T03:42:15;6.63;83.59
72650;SHT31;61467;50.674;4.618;2023-12-20T03:44:42;6.67;83.57
72650;SHT31;61467;50.674;4.618;2023-12-20T03:47:09;6.68;83.56
72650;SHT31;61467;50.674;4.618;2023-12-20T03:49:37;6.70;83.64
72650;SHT31;61467;50.674;4.618;2023-12-20T03:52:04;6.70;83.60
72650;SHT31;61467;50.674;4.618;2023-12-20T03:54:35;6.84;82.99
72650;SHT31;61467;50.674;4.618;2023-12-20T03:57:01;6.63;83.55
72650;SHT31;61467;50.674;4.618;2023-12-20T03:59:28;6.80;83.52
72650;SHT31;61467;50.674;4.618;2023-12-20T04:01:55;6.74;83.62
72650;SHT31;61467;50.674;4.618;2023-12-20T04:04:22;6.82;83.60
72650;SHT31;61467;50.674;4.618;2023-12-20T04:06:50;6.95;83.15
72650;SHT31;61467;50.674;4.618;2023-12-20T04:09:18;6.81;83.36
72650;SHT31;61467;50.674;4.618;2023-12-20T04:11:46;7.11;83.01
72650;SHT31;61467;50.674;4.618;2023-12-20T04:14:13;6.99;82.43
72650;SHT31;61467;50.674;4.618;2023-12-20T04:16:40;6.84;82.87
72650;SHT31;61467;50.674;4.618;2023-12-20T04:19:08;6.74;82.99
72650;SHT31;61467;50.674;4.618;2023-12-20T04:21:34;6.70;83.24
72650;SHT31;61467;50.674;4.618;2023-12-20T04:24:03;6.91;82.63
72650;SHT31;61467;50.674;4.618;2023-12-20T04:26:29;7.01;82.46
72650;SHT31;61467;50.674;4.618;2023-12-20T04:28:57;6.75;82.71
72650;SHT31;61467;50.674;4.618;2023-12-20T04:31:23;6.98;82.46
72650;SHT31;61467;50.674;4.618;2023-12-20T04:33:50;6.75;82.93
72650;SHT31;61467;50.674;4.618;2023-12-20T04:36:17;6.89;82.83
72650;SHT31;61467;50.674;4.618;2023-12-20T04:38:44;6.67;82.85
72650;SHT31;61467;50.674;4.618;2023-12-20T04:41:12;6.67;83.32
72650;SHT31;61467;50.674;4.618;2023-12-20T04:43:41;6.70;83.51
72650;SHT31;61467;50.674;4.618;2023-12-20T04:46:08;6.57;83.76
72650;SHT31;61467;50.674;4.618;2023-12-20T04:48:34;6.68;83.63
72650;SHT31;61467;50.674;4.618;2023-12-20T04:51:01;6.64;83.02
72650;SHT31;61467;50.674;4.618;2023-12-20T04:53:28;6.71;82.99
72650;SHT31;61467;50.674;4.618;2023-12-20T04:55:55;6.44;83.92
72650;SHT31;61467;50.674;4.618;2023-12-20T04:58:23;6.43;83.48
72650;SHT31;61467;50.674;4.618;2023-12-20T05:00:50;6.68;83.13
72650;SHT31;61467;50.674;4.618;2023-12-20T05:03:17;6.60;82.72
72650;SHT31;61467;50.674;4.618;2023-12-20T05:05:44;6.43;83.66
72650;SHT31;61467;50.674;4.618;2023-12-20T05:08:11;6.48;83.32
72650;SHT31;61467;50.674;4.618;2023-12-20T05:10:39;6.47;83.88
72650;SHT31;61467;50.674;4.618;2023-12-20T05:13:06;6.64;83.64
72650;SHT31;61467;50.674;4.618;2023-12-20T05:15:35;6.60;83.59
72650;SHT31;61467;50.674;4.618;2023-12-20T05:18:02;6.55;83.52
72650;SHT31;61467;50.674;4.618;2023-12-20T05:20:28;6.37;83.81
72650;SHT31;61467;50.674;4.618;2023-12-20T05:22:55;6.43;84.51
72650;SHT31;61467;50.674;4.618;2023-12-20T05:25:22;6.51;83.94
72650;SHT31;61467;50.674;4.618;2023-12-20T05:27:49;6.48;84.21
72650;SHT31;61467;50.674;4.618;2023-12-20T05:30:16;6.45;84.10
72650;SHT31;61467;50.674;4.618;2023-12-20T05:32:44;6.34;84.17
72650;SHT31;61467;50.674;4.618;2023-12-20T05:35:11;6.33;84.69
72650;SHT31;61467;50.674;4.618;2023-12-20T05:37:37;6.34;84.27
72650;SHT31;61467;50.674;4.618;2023-12-20T05:40:05;6.43;84.58
72650;SHT31;61467;50.674;4.618;2023-12-20T05:42:35;6.40;84.12
72650;SHT31;61467;50.674;4.618;2023-12-20T05:45:02;6.63;83.77
72650;SHT31;61467;50.674;4.618;2023-12-20T05:47:29;6.65;83.47
72650;SHT31;61467;50.674;4.618;2023-12-20T05:49:57;6.57;83.23
72650;SHT31;61467;50.674;4.618;2023-12-20T05:52:25;6.36;84.06
72650;SHT31;61467;50.674;4.618;2023-12-20T05:54:52;6.45;83.79
72650;SHT31;61467;50.674;4.618;2023-12-20T05:57:19;6.33;84.16
72650;SHT31;61467;50.674;4.618;2023-12-20T05:59:45;6.63;83.37
72650;SHT31;61467;50.674;4.618;2023-12-20T06:02:12;6.68;82.80
72650;SHT31;61467;50.674;4.618;2023-12-20T06:04:42;6.45;82.80
72650;SHT31;61467;50.674;4.618;2023-12-20T06:07:12;6.50;83.19
72650;SHT31;61467;50.674;4.618;2023-12-20T06:09:39;6.24;83.81
72650;SHT31;61467;50.674;4.618;2023-12-20T06:12:06;6.34;83.73
72650;SHT31;61467;50.674;4.618;2023-12-20T06:14:34;6.32;83.62
72650;SHT31;61467;50.674;4.618;2023-12-20T06:17:01;6.16;83.63
72650;SHT31;61467;50.674;4.618;2023-12-20T06:19:28;6.29;83.64
72650;SHT31;61467;50.674;4.618;2023-12-20T06:21:55;6.43;83.33
72650;SHT31;61467;50.674;4.618;2023-12-20T06:24:23;6.14;84.12
72650;SHT31;61467;50.674;4.618;2023-12-20T06:26:53;6.19;84.33
72650;SHT31;61467;50.674;4.618;2023-12-20T06:29:21;6.09;84.41
72650;SHT31;61467;50.674;4.618;2023-12-20T06:31:48;6.24;84.16
72650;SHT31;61467;50.674;4.618;2023-12-20T06:34:15;6.29;83.60
72650;SHT31;61467;50.674;4.618;2023-12-20T06:36:41;6.12;83.71
72650;SHT31;61467;50.674;4.618;2023-12-20T06:39:08;6.36;83.16
72650;SHT31;61467;50.674;4.618;2023-12-20T06:41:39;6.41;83.41
72650;SHT31;61467;50.674;4.618;2023-12-20T06:44:06;6.48;83.05
72650;SHT31;61467;50.674;4.618;2023-12-20T06:46:32;6.36;82.95
72650;SHT31;61467;50.674;4.618;2023-12-20T06:48:59;6.37;82.93
72650;SHT31;61467;50.674;4.618;2023-12-20T06:51:26;6.27;83.06
72650;SHT31;61467;50.674;4.618;2023-12-20T06:53:53;6.41;83.08
72650;SHT31;61467;50.674;4.618;2023-12-20T06:56:20;6.50;82.57
72650;SHT31;61467;50.674;4.618;2023-12-20T06:58:48;6.37;82.71
72650;SHT31;61467;50.674;4.618;2023-12-20T07:01:15;6.30;83.26
72650;SHT31;61467;50.674;4.618;2023-12-20T07:03:42;6.27;82.92
72650;SHT31;61467;50.674;4.618;2023-12-20T07:06:09;6.48;82.78
72650;SHT31;61467;50.674;4.618;2023-12-20T07:08:36;6.17;82.66
72650;SHT31;61467;50.674;4.618;2023-12-20T07:11:03;6.17;83.13
72650;SHT31;61467;50.674;4.618;2023-12-20T07:13:30;6.32;82.69
72650;SHT31;61467;50.674;4.618;2023-12-20T07:15:58;6.34;82.60
72650;SHT31;61467;50.674;4.618;2023-12-20T07:18:25;6.10;82.83
72650;SHT31;61467;50.674;4.618;2023-12-20T07:20:54;6.19;82.61
72650;SHT31;61467;50.674;4.618;2023-12-20T07:23:21;6.09;82.80
72650;SHT31;61467;50.674;4.618;2023-12-20T07:25:48;6.09;82.87
72650;SHT31;61467;50.674;4.618;2023-12-20T07:28:15;5.98;83.16
72650;SHT31;61467;50.674;4.618;2023-12-20T07:30:41;6.19;82.69
72650;SHT31;61467;50.674;4.618;2023-12-20T07:33:10;6.24;82.14
72650;SHT31;61467;50.674;4.618;2023-12-20T07:35:37;6.10;82.59
72650;SHT31;61467;50.674;4.618;2023-12-20T07:38:04;6.02;83.14
72650;SHT31;61467;50.674;4.618;2023-12-20T07:40:31;6.24;82.38
72650;SHT31;61467;50.674;4.618;2023-12-20T07:42:58;6.01;82.92
72650;SHT31;61467;50.674;4.618;2023-12-20T07:45:25;6.12;82.72
72650;SHT31;61467;50.674;4.618;2023-12-20T07:47:52;6.19;82.63
72650;SHT31;61467;50.674;4.618;2023-12-20T07:50:21;5.98;82.83
72650;SHT31;61467;50.674;4.618;2023-12-20T07:52:48;5.88;82.91
72650;SHT31;61467;50.674;4.618;2023-12-20T07:55:14;5.95;83.11
72650;SHT31;61467;50.674;4.618;2023-12-20T07:57:41;6.03;83.24
72650;SHT31;61467;50.674;4.618;2023-12-20T08:00:09;5.76;83.37
72650;SHT31;61467;50.674;4.618;2023-12-20T08:02:36;5.89;83.46
72650;SHT31;61467;50.674;4.618;2023-12-20T08:05:03;6.20;82.54
72650;SHT31;61467;50.674;4.618;2023-12-20T08:07:32;6.01;82.38
72650;SHT31;61467;50.674;4.618;2023-12-20T08:09:59;6.03;82.65
72650;SHT31;61467;50.674;4.618;2023-12-20T08:12:25;5.99;83.20
72650;SHT31;61467;50.674;4.618;2023-12-20T08:14:53;5.71;83.59
72650;SHT31;61467;50.674;4.618;2023-12-20T08:17:20;5.73;83.71
72650;SHT31;61467;50.674;4.618;2023-12-20T08:19:48;5.99;83.30
72650;SHT31;61467;50.674;4.618;2023-12-20T08:22:15;5.72;83.78
72650;SHT31;61467;50.674;4.618;2023-12-20T08:24:43;5.75;84.08
72650;SHT31;61467;50.674;4.618;2023-12-20T08:27:10;5.55;84.71
72650;SHT31;61467;50.674;4.618;2023-12-20T08:29:37;5.93;83.89
72650;SHT31;61467;50.674;4.618;2023-12-20T08:32:04;5.93;83.73
72650;SHT31;61467;50.674;4.618;2023-12-20T08:34:31;6.01;83.48
72650;SHT31;61467;50.674;4.618;2023-12-20T08:36:58;6.14;83.16
72650;SHT31;61467;50.674;4.618;2023-12-20T08:39:25;6.13;83.01
72650;SHT31;61467;50.674;4.618;2023-12-20T08:41:53;5.99;83.26
72650;SHT31;61467;50.674;4.618;2023-12-20T08:44:20;6.14;83.25
72650;SHT31;61467;50.674;4.618;2023-12-20T08:46:47;6.07;83.36
72650;SHT31;61467;50.674;4.618;2023-12-20T08:49:14;6.13;82.98
72650;SHT31;61467;50.674;4.618;2023-12-20T08:51:41;6.14;82.95
72650;SHT31;61467;50.674;4.618;2023-12-20T08:54:09;6.45;82.30
72650;SHT31;61467;50.674;4.618;2023-12-20T08:56:36;6.27;82.29
72650;SHT31;61467;50.674;4.618;2023-12-20T08:59:04;6.22;82.68
72650;SHT31;61467;50.674;4.618;2023-12-20T09:01:30;6.33;82.63
72650;SHT31;61467;50.674;4.618;2023-12-20T09:03:57;6.09;83.24
72650;SHT31;61467;50.674;4.618;2023-12-20T09:06:24;6.10;83.74
72650;SHT31;61467;50.674;4.618;2023-12-20T09:08:51;6.12;83.91
72650;SHT31;61467;50.674;4.618;2023-12-20T09:11:18;6.01;83.83
72650;SHT31;61467;50.674;4.618;2023-12-20T09:13:45;6.24;83.73
72650;SHT31;61467;50.674;4.618;2023-12-20T09:16:13;6.30;83.65
72650;SHT31;61467;50.674;4.618;2023-12-20T09:18:41;6.36;83.83
72650;SHT31;61467;50.674;4.618;2023-12-20T09:21:08;6.54;83.09
72650;SHT31;61467;50.674;4.618;2023-12-20T09:23:38;6.57;82.82
72650;SHT31;61467;50.674;4.618;2023-12-20T09:26:06;6.75;82.50
72650;SHT31;61467;50.674;4.618;2023-12-20T09:28:33;6.75;81.95
72650;SHT31;61467;50.674;4.618;2023-12-20T09:31:03;6.65;82.68
72650;SHT31;61467;50.674;4.618;2023-12-20T09:33:32;6.64;82.60
72650;SHT31;61467;50.674;4.618;2023-12-20T09:35:59;6.68;82.96
72650;SHT31;61467;50.674;4.618;2023-12-20T09:38:26;6.78;82.66
72650;SHT31;61467;50.674;4.618;2023-12-20T09:40:53;6.67;82.77
72650;SHT31;61467;50.674;4.618;2023-12-20T09:43:23;6.80;82.22
72650;SHT31;61467;50.674;4.618;2023-12-20T09:45:53;6.72;82.72
72650;SHT31;61467;50.674;4.618;2023-12-20T09:48:20;6.58;83.26
72650;SHT31;61467;50.674;4.618;2023-12-20T09:50:48;6.60;83.12
72650;SHT31;61467;50.674;4.618;2023-12-20T09:53:15;6.64;83.15
72650;SHT31;61467;50.674;4.618;2023-12-20T09:55:44;6.78;83.18
72650;SHT31;61467;50.674;4.618;2023-12-20T09:58:11;6.88;82.78
72650;SHT31;61467;50.674;4.618;2023-12-20T10:00:38;7.08;82.40
72650;SHT31;61467;50.674;4.618;2023-12-20T10:03:06;6.87;82.70
72650;SHT31;61467;50.674;4.618;2023-12-20T10:05:33;6.89;82.61
72650;SHT31;61467;50.674;4.618;2023-12-20T10:08:02;7.15;82.25
72650;SHT31;61467;50.674;4.618;2023-12-20T10:10:28;7.20;81.80
72650;SHT31;61467;50.674;4.618;2023-12-20T10:13:04;7.11;82.01
72650;SHT31;61467;50.674;4.618;2023-12-20T10:15:32;7.22;81.55
72650;SHT31;61467;50.674;4.618;2023-12-20T10:17:59;7.37;81.19
72650;SHT31;61467;50.674;4.618;2023-12-20T10:20:26;7.23;81.73
72650;SHT31;61467;50.674;4.618;2023-12-20T10:22:54;7.29;81.66
72650;SHT31;61467;50.674;4.618;2023-12-20T10:25:23;7.29;81.28
72650;SHT31;61467;50.674;4.618;2023-12-20T10:28:08;6.99;82.16
72650;SHT31;61467;50.674;4.618;2023-12-20T10:30:35;7.18;81.52
72650;SHT31;61467;50.674;4.618;2023-12-20T10:33:02;7.08;81.63
72650;SHT31;61467;50.674;4.618;2023-12-20T10:35:29;7.20;81.42
72650;SHT31;61467;50.674;4.618;2023-12-20T10:37:56;7.30;81.88
72650;SHT31;61467;50.674;4.618;2023-12-20T10:40:25;7.11;81.94
72650;SHT31;61467;50.674;4.618;2023-12-20T10:42:56;7.33;81.28
72650;SHT31;61467;50.674;4.618;2023-12-20T10:45:23;7.43;80.82
72650;SHT31;61467;50.674;4.618;2023-12-20T10:47:50;7.19;81.27
72650;SHT31;61467;50.674;4.618;2023-12-20T10:50:18;7.15;81.83
72650;SHT31;61467;50.674;4.618;2023-12-20T10:52:48;7.30;81.73
72650;SHT31;61467;50.674;4.618;2023-12-20T10:55:21;7.15;82.02
72650;SHT31;61467;50.674;4.618;2023-12-20T10:57:49;7.34;81.58
72650;SHT31;61467;50.674;4.618;2023-12-20T11:00:18;7.29;81.78
72650;SHT31;61467;50.674;4.618;2023-12-20T11:02:45;7.15;82.36
72650;SHT31;61467;50.674;4.618;2023-12-20T11:05:22;7.23;82.18
72650;SHT31;61467;50.674;4.618;2023-12-20T11:07:54;7.53;82.11
72650;SHT31;61467;50.674;4.618;2023-12-20T11:10:26;7.46;81.71
72650;SHT31;61467;50.674;4.618;2023-12-20T11:13:00;7.44;82.01
72650;SHT31;61467;50.674;4.618;2023-12-20T11:15:30;7.57;81.57
72650;SHT31;61467;50.674;4.618;2023-12-20T11:17:57;7.46;81.34
72650;SHT31;61467;50.674;4.618;2023-12-20T11:20:36;7.47;82.15
72650;SHT31;61467;50.674;4.618;2023-12-20T11:23:07;7.52;82.08
72650;SHT31;61467;50.674;4.618;2023-12-20T11:25:49;7.44;82.11
72650;SHT31;61467;50.674;4.618;2023-12-20T11:28:23;7.50;82.03
72650;SHT31;61467;50.674;4.618;2023-12-20T11:30:51;7.56;81.94
72650;SHT31;61467;50.674;4.618;2023-12-20T11:33:21;7.81;81.15
72650;SHT31;61467;50.674;4.618;2023-12-20T11:35:48;7.95;80.80
72650;SHT31;61467;50.674;4.618;2023-12-20T11:38:15;7.93;81.04
72650;SHT31;61467;50.674;4.618;2023-12-20T11:40:43;7.63;81.55
72650;SHT31;61467;50.674;4.618;2023-12-20T11:43:10;7.80;81.62
72650;SHT31;61467;50.674;4.618;2023-12-20T11:45:49;7.64;81.81
72650;SHT31;61467;50.674;4.618;2023-12-20T11:48:17;7.47;83.11
72650;SHT31;61467;50.674;4.618;2023-12-20T11:50:46;7.50;83.38
72650;SHT31;61467;50.674;4.618;2023-12-20T11:53:13;7.63;83.31
72650;SHT31;61467;50.674;4.618;2023-12-20T11:55:40;7.71;82.82
72650;SHT31;61467;50.674;4.618;2023-12-20T11:58:07;7.64;83.52
72650;SHT31;61467;50.674;4.618;2023-12-20T12:00:34;7.80;83.03
72650;SHT31;61467;50.674;4.618;2023-12-20T12:03:03;7.78;83.12
72650;SHT31;61467;50.674;4.618;2023-12-20T12:05:30;7.94;82.41
72650;SHT31;61467;50.674;4.618;2023-12-20T12:07:58;7.78;83.00
72650;SHT31;61467;50.674;4.618;2023-12-20T12:10:25;7.91;82.48
72650;SHT31;61467;50.674;4.618;2023-12-20T12:12:52;7.93;82.74
72650;SHT31;61467;50.674;4.618;2023-12-20T12:15:19;7.97;82.74
72650;SHT31;61467;50.674;4.618;2023-12-20T12:17:52;8.09;82.20
72650;SHT31;61467;50.674;4.618;2023-12-20T12:20:21;7.94;83.14
72650;SHT31;61467;50.674;4.618;2023-12-20T12:22:57;7.90;83.21
72650;SHT31;61467;50.674;4.618;2023-12-20T12:25:24;7.77;84.12
72650;SHT31;61467;50.674;4.618;2023-12-20T12:27:51;7.78;84.30
72650;SHT31;61467;50.674;4.618;2023-12-20T12:30:18;7.70;84.28
72650;SHT31;61467;50.674;4.618;2023-12-20T12:32:46;7.62;84.79
72650;SHT31;61467;50.674;4.618;2023-12-20T12:35:14;7.84;84.40
72650;SHT31;61467;50.674;4.618;2023-12-20T12:37:43;7.84;84.51
72650;SHT31;61467;50.674;4.618;2023-12-20T12:40:11;8.06;84.16
72650;SHT31;61467;50.674;4.618;2023-12-20T12:42:38;7.99;83.61
72650;SHT31;61467;50.674;4.618;2023-12-20T12:45:07;7.74;84.94
72650;SHT31;61467;50.674;4.618;2023-12-20T12:47:34;7.74;85.01
72650;SHT31;61467;50.674;4.618;2023-12-20T12:50:01;7.67;85.34
72650;SHT31;61467;50.674;4.618;2023-12-20T12:52:28;7.80;85.44
72650;SHT31;61467;50.674;4.618;2023-12-20T12:54:56;7.87;85.02
72650;SHT31;61467;50.674;4.618;2023-12-20T12:57:23;7.98;85.06
72650;SHT31;61467;50.674;4.618;2023-12-20T12:59:50;7.95;85.42
72650;SHT31;61467;50.674;4.618;2023-12-20T13:02:17;8.02;85.60
72650;SHT31;61467;50.674;4.618;2023-12-20T13:04:44;7.87;85.85
72650;SHT31;61467;50.674;4.618;2023-12-20T13:07:11;7.74;86.54
72650;SHT31;61467;50.674;4.618;2023-12-20T13:09:38;7.81;86.21
72650;SHT31;61467;50.674;4.618;2023-12-20T13:12:10;7.81;86.58
72650;SHT31;61467;50.674;4.618;2023-12-20T13:14:37;7.98;85.85
72650;SHT31;61467;50.674;4.618;2023-12-20T13:17:04;8.06;86.08
72650;SHT31;61467;50.674;4.618;2023-12-20T13:19:31;7.94;85.95
72650;SHT31;61467;50.674;4.618;2023-12-20T13:21:58;7.77;86.68
72650;SHT31;61467;50.674;4.618;2023-12-20T13:24:25;7.98;86.75
72650;SHT31;61467;50.674;4.618;2023-12-20T13:26:52;7.97;86.59
72650;SHT31;61467;50.674;4.618;2023-12-20T13:29:20;7.94;85.89
72650;SHT31;61467;50.674;4.618;2023-12-20T13:31:47;7.97;86.36
72650;SHT31;61467;50.674;4.618;2023-12-20T13:34:14;7.97;86.23
72650;SHT31;61467;50.674;4.618;2023-12-20T13:36:43;8.15;85.76
72650;SHT31;61467;50.674;4.618;2023-12-20T13:39:11;7.97;85.58
72650;SHT31;61467;50.674;4.618;2023-12-20T13:41:38;8.15;85.21
72650;SHT31;61467;50.674;4.618;2023-12-20T13:44:05;8.05;85.40
72650;SHT31;61467;50.674;4.618;2023-12-20T13:46:33;8.01;85.91
72650;SHT31;61467;50.674;4.618;2023-12-20T13:49:00;7.98;85.94
72650;SHT31;61467;50.674;4.618;2023-12-20T13:51:27;7.97;86.03
72650;SHT31;61467;50.674;4.618;2023-12-20T13:53:54;8.05;85.72
72650;SHT31;61467;50.674;4.618;2023-12-20T13:56:21;7.97;85.78
72650;SHT31;61467;50.674;4.618;2023-12-20T13:58:48;8.15;85.52
72650;SHT31;61467;50.674;4.618;2023-12-20T14:01:16;8.34;84.81
72650;SHT31;61467;50.674;4.618;2023-12-20T14:03:44;8.25;85.64
72650;SHT31;61467;50.674;4.618;2023-12-20T14:06:12;8.18;85.68
72650;SHT31;61467;50.674;4.618;2023-12-20T14:08:40;8.14;85.41
72650;SHT31;61467;50.674;4.618;2023-12-20T14:11:08;8.18;85.90
72650;SHT31;61467;50.674;4.618;2023-12-20T14:13:34;8.14;85.80
72650;SHT31;61467;50.674;4.618;2023-12-20T14:16:01;8.08;86.06
72650;SHT31;61467;50.674;4.618;2023-12-20T14:18:29;8.29;85.31
72650;SHT31;61467;50.674;4.618;2023-12-20T14:20:57;8.25;85.16
72650;SHT31;61467;50.674;4.618;2023-12-20T14:23:25;8.31;84.77
72650;SHT31;61467;50.674;4.618;2023-12-20T14:25:52;8.52;84.47
72650;SHT31;61467;50.674;4.618;2023-12-20T14:28:21;8.29;84.80
72650;SHT31;61467;50.674;4.618;2023-12-20T14:30:48;8.45;84.47
72650;SHT31;61467;50.674;4.618;2023-12-20T14:33:15;8.57;84.07
72650;SHT31;61467;50.674;4.618;2023-12-20T14:35:41;8.56;84.20
72650;SHT31;61467;50.674;4.618;2023-12-20T14:38:11;8.55;84.40
72650;SHT31;61467;50.674;4.618;2023-12-20T14:40:39;8.38;84.96
72650;SHT31;61467;50.674;4.618;2023-12-20T14:43:06;8.52;84.86
72650;SHT31;61467;50.674;4.618;2023-12-20T14:45:33;8.39;84.67
72650;SHT31;61467;50.674;4.618;2023-12-20T14:48:00;8.60;84.35
72650;SHT31;61467;50.674;4.618;2023-12-20T14:50:27;8.50;84.07
72650;SHT31;61467;50.674;4.618;2023-12-20T14:52:54;8.48;84.46
72650;SHT31;61467;50.674;4.618;2023-12-20T14:55:22;8.43;84.35
72650;SHT31;61467;50.674;4.618;2023-12-20T14:57:52;8.62;84.13
72650;SHT31;61467;50.674;4.618;2023-12-20T15:00:19;8.55;84.20
72650;SHT31;61467;50.674;4.618;2023-12-20T15:02:46;8.43;84.15
72650;SHT31;61467;50.674;4.618;2023-12-20T15:05:13;8.60;83.54
72650;SHT31;61467;50.674;4.618;2023-12-20T15:07:41;8.69;83.83
72650;SHT31;61467;50.674;4.618;2023-12-20T15:10:08;8.69;83.85
72650;SHT31;61467;50.674;4.618;2023-12-20T15:12:37;8.63;84.21
72650;SHT31;61467;50.674;4.618;2023-12-20T15:15:06;8.57;83.83
72650;SHT31;61467;50.674;4.618;2023-12-20T15:17:35;8.56;84.30
72650;SHT31;61467;50.674;4.618;2023-12-20T15:20:02;8.65;83.97
72650;SHT31;61467;50.674;4.618;2023-12-20T15:22:29;8.72;83.59
72650;SHT31;61467;50.674;4.618;2023-12-20T15:24:59;8.74;83.65
72650;SHT31;61467;50.674;4.618;2023-12-20T15:27:26;8.67;83.87
72650;SHT31;61467;50.674;4.618;2023-12-20T15:29:55;8.70;83.87
72650;SHT31;61467;50.674;4.618;2023-12-20T15:32:21;8.69;84.14
72650;SHT31;61467;50.674;4.618;2023-12-20T15:34:50;8.72;83.89
72650;SHT31;61467;50.674;4.618;2023-12-20T15:37:17;8.69;84.20
72650;SHT31;61467;50.674;4.618;2023-12-20T15:39:44;8.59;84.70
72650;SHT31;61467;50.674;4.618;2023-12-20T15:42:11;8.59;84.81
72650;SHT31;61467;50.674;4.618;2023-12-20T15:44:38;8.72;84.32
72650;SHT31;61467;50.674;4.618;2023-12-20T15:47:06;8.81;84.15